sensor_id;sensor_type;location;lat;lon;timestamp;P1;durP1;ratioP1;P2;durP2;ratioP2
73954;SDS011;62306;52.516;13.290;2023-07-29T00:01:41;12.13;;;8.85;;
73954;SDS011;62306;52.516;13.290;2023-07-29T00:04:08;11.65;;;8.98;;
73954;SDS011;62306;52.516;13.290;2023-07-29T00:06:37;12.13;;;9.00;;
73954;SDS011;62306;52.516;13.290;2023-07-29T00:09:03;11.32;;;9.77;;
73954;SDS011;62306;52.516;13.290;2023-07-29T00:11:30;13.40;;;9.05;;
73954;SDS011;62306;52.516;13.290;2023-07-29T00:13:58;11.45;;;8.95;;
73954;SDS011;62306;52.516;13.290;2023-07-29T00:16:25;12.00;;;9.23;;
73954;SDS011;62306;52.516;13.290;2023-07-29T00:18:52;13.68;;;9.32;;
73954;SDS011;62306;52.516;13.290;2023-07-29T00:21:19;14.02;;;9.00;;
73954;SDS011;62306;52.516;13.290;2023-07-29T00:23:47;14.88;;;9.20;;
73954;SDS011;62306;52.516;13.290;2023-07-29T00:26:14;13.82;;;9.57;;
73954;SDS011;62306;52.516;13.290;2023-07-29T00:28:41;12.00;;;8.80;;
73954;SDS011;62306;52.516;13.290;2023-07-29T00:31:08;11.02;;;9.48;;
73954;SDS011;62306;52.516;13.290;2023-07-29T00:33:35;10.50;;;9.07;;
73954;SDS011;62306;52.516;13.290;2023-07-29T00:36:02;14.18;;;9.80;;
73954;SDS011;62306;52.516;13.290;2023-07-29T00:38:29;10.60;;;8.60;;
73954;SDS011;62306;52.516;13.290;2023-07-29T00:40:58;11.20;;;9.95;;
73954;SDS011;62306;52.516;13.290;2023-07-29T00:43:26;16.60;;;9.98;;
73954;SDS011;62306;52.516;13.290;2023-07-29T00:45:53;11.57;;;9.63;;
73954;SDS011;62306;52.516;13.290;2023-07-29T00:48:22;13.90;;;9.23;;
73954;SDS011;62306;52.516;13.290;2023-07-29T00:50:49;12.60;;;9.30;;
73954;SDS011;62306;52.516;13.290;2023-07-29T00:53:16;12.00;;;9.70;;
73954;SDS011;62306;52.516;13.290;2023-07-29T00:55:43;16.92;;;9.55;;
73954;SDS011;62306;52.516;13.290;2023-07-29T00:58:11;13.98;;;9.40;;
73954;SDS011;62306;52.516;13.290;2023-07-29T01:00:38;15.35;;;9.52;;
73954;SDS011;62306;52.516;13.290;2023-07-29T01:03:06;13.13;;;9.38;;
73954;SDS011;62306;52.516;13.290;2023-07-29T01:05:38;12.32;;;9.57;;
73954;SDS011;62306;52.516;13.290;2023-07-29T01:08:11;11.93;;;9.35;;
73954;SDS011;62306;52.516;13.290;2023-07-29T01:10:46;12.35;;;9.82;;
73954;SDS011;62306;52.516;13.290;2023-07-29T01:13:22;14.30;;;10.07;;
73954;SDS011;62306;52.516;13.290;2023-07-29T01:15:58;12.98;;;9.70;;
73954;SDS011;62306;52.516;13.290;2023-07-29T01:18:28;16.95;;;9.55;;
73954;SDS011;62306;52.516;13.290;2023-07-29T01:20:58;12.23;;;9.25;;
73954;SDS011;62306;52.516;13.290;2023-07-29T01:23:27;11.85;;;9.73;;
73954;SDS011;62306;52.516;13.290;2023-07-29T01:25:55;15.77;;;8.93;;
73954;SDS011;62306;52.516;13.290;2023-07-29T01:28:22;11.25;;;9.35;;
73954;SDS011;62306;52.516;13.290;2023-07-29T01:30:50;11.25;;;9.52;;
73954;SDS011;62306;52.516;13.290;2023-07-29T01:35:52;14.43;;;9.60;;
73954;SDS011;62306;52.516;13.290;2023-07-29T01:38:27;10.63;;;8.77;;
73954;SDS011;62306;52.516;13.290;2023-07-29T01:40:59;13.50;;;9.73;;
73954;SDS011;62306;52.516;13.290;2023-07-29T01:43:28;19.27;;;10.30;;
73954;SDS011;62306;52.516;13.290;2023-07-29T01:45:55;11.70;;;9.57;;
73954;SDS011;62306;52.516;13.290;2023-07-29T01:48:22;13.25;;;10.15;;
73954;SDS011;62306;52.516;13.290;2023-07-29T01:50:49;13.18;;;9.68;;
73954;SDS011;62306;52.516;13.290;2023-07-29T01:53:15;13.40;;;10.10;;
73954;SDS011;62306;52.516;13.290;2023-07-29T01:55:44;14.27;;;10.15;;
73954;SDS011;62306;52.516;13.290;2023-07-29T01:58:11;11.85;;;9.70;;
73954;SDS011;62306;52.516;13.290;2023-07-29T02:00:38;11.02;;;9.23;;
73954;SDS011;62306;52.516;13.290;2023-07-29T02:03:05;13.13;;;9.63;;
73954;SDS011;62306;52.516;13.290;2023-07-29T02:05:31;14.25;;;9.38;;
73954;SDS011;62306;52.516;13.290;2023-07-29T02:07:58;12.30;;;10.00;;
73954;SDS011;62306;52.516;13.290;2023-07-29T02:10:25;19.17;;;9.45;;
73954;SDS011;62306;52.516;13.290;2023-07-29T02:12:53;12.32;;;9.98;;
73954;SDS011;62306;52.516;13.290;2023-07-29T02:15:20;10.80;;;9.55;;
73954;SDS011;62306;52.516;13.290;2023-07-29T02:17:49;10.82;;;9.48;;
73954;SDS011;62306;52.516;13.290;2023-07-29T02:20:16;13.07;;;9.73;;
73954;SDS011;62306;52.516;13.290;2023-07-29T02:22:43;10.68;;;9.02;;
73954;SDS011;62306;52.516;13.290;2023-07-29T02:25:10;11.95;;;9.20;;
73954;SDS011;62306;52.516;13.290;2023-07-29T02:27:36;14.23;;;9.07;;
73954;SDS011;62306;52.516;13.290;2023-07-29T02:30:05;12.55;;;9.35;;
73954;SDS011;62306;52.516;13.290;2023-07-29T02:32:34;11.07;;;9.25;;
73954;SDS011;62306;52.516;13.290;2023-07-29T02:35:01;10.48;;;9.25;;
73954;SDS011;62306;52.516;13.290;2023-07-29T02:37:28;11.75;;;9.70;;
73954;SDS011;62306;52.516;13.290;2023-07-29T02:39:55;14.55;;;9.88;;
73954;SDS011;62306;52.516;13.290;2023-07-29T02:42:21;17.52;;;9.85;;
73954;SDS011;62306;52.516;13.290;2023-07-29T02:44:48;16.10;;;9.55;;
73954;SDS011;62306;52.516;13.290;2023-07-29T02:47:17;11.77;;;9.27;;
73954;SDS011;62306;52.516;13.290;2023-07-29T02:49:43;15.40;;;9.50;;
73954;SDS011;62306;52.516;13.290;2023-07-29T02:52:11;11.65;;;9.35;;
73954;SDS011;62306;52.516;13.290;2023-07-29T02:54:37;13.57;;;9.75;;
73954;SDS011;62306;52.516;13.290;2023-07-29T02:57:04;12.13;;;9.30;;
73954;SDS011;62306;52.516;13.290;2023-07-29T02:59:31;11.52;;;9.15;;
73954;SDS011;62306;52.516;13.290;2023-07-29T03:01:58;13.23;;;10.30;;
73954;SDS011;62306;52.516;13.290;2023-07-29T03:04:26;12.60;;;9.68;;
73954;SDS011;62306;52.516;13.290;2023-07-29T03:06:53;13.15;;;9.07;;
73954;SDS011;62306;52.516;13.290;2023-07-29T03:09:20;14.25;;;8.98;;
73954;SDS011;62306;52.516;13.290;2023-07-29T03:11:46;11.27;;;9.23;;
73954;SDS011;62306;52.516;13.290;2023-07-29T03:14:13;14.02;;;9.45;;
73954;SDS011;62306;52.516;13.290;2023-07-29T03:16:40;13.70;;;9.80;;
73954;SDS011;62306;52.516;13.290;2023-07-29T03:19:07;11.48;;;9.82;;
73954;SDS011;62306;52.516;13.290;2023-07-29T03:21:35;15.02;;;9.57;;
73954;SDS011;62306;52.516;13.290;2023-07-29T03:24:02;13.40;;;9.23;;
73954;SDS011;62306;52.516;13.290;2023-07-29T03:26:29;13.32;;;10.07;;
73954;SDS011;62306;52.516;13.290;2023-07-29T03:28:56;12.82;;;9.95;;
73954;SDS011;62306;52.516;13.290;2023-07-29T03:31:23;13.98;;;9.80;;
73954;SDS011;62306;52.516;13.290;2023-07-29T03:33:49;14.30;;;8.95;;
73954;SDS011;62306;52.516;13.290;2023-07-29T03:36:16;9.68;;;8.68;;
73954;SDS011;62306;52.516;13.290;2023-07-29T03:38:45;13.65;;;9.20;;
73954;SDS011;62306;52.516;13.290;2023-07-29T03:41:12;11.18;;;9.68;;
73954;SDS011;62306;52.516;13.290;2023-07-29T03:43:39;11.13;;;9.32;;
73954;SDS011;62306;52.516;13.290;2023-07-29T03:46:06;15.88;;;9.07;;
73954;SDS011;62306;52.516;13.290;2023-07-29T03:48:32;13.27;;;9.05;;
73954;SDS011;62306;52.516;13.290;2023-07-29T03:50:59;12.93;;;8.93;;
73954;SDS011;62306;52.516;13.290;2023-07-29T03:53:26;12.55;;;9.40;;
73954;SDS011;62306;52.516;13.290;2023-07-29T03:55:54;10.13;;;9.02;;
73954;SDS011;62306;52.516;13.290;2023-07-29T03:58:21;12.02;;;9.00;;
73954;SDS011;62306;52.516;13.290;2023-07-29T04:00:48;10.23;;;8.88;;
73954;SDS011;62306;52.516;13.290;2023-07-29T04:03:14;12.07;;;9.05;;
73954;SDS011;62306;52.516;13.290;2023-07-29T04:05:41;15.00;;;8.73;;
73954;SDS011;62306;52.516;13.290;2023-07-29T04:08:08;12.05;;;9.52;;
73954;SDS011;62306;52.516;13.290;2023-07-29T04:10:35;11.38;;;9.25;;
73954;SDS011;62306;52.516;13.290;2023-07-29T04:13:04;12.77;;;8.82;;
73954;SDS011;62306;52.516;13.290;2023-07-29T04:15:31;12.13;;;8.82;;
73954;SDS011;62306;52.516;13.290;2023-07-29T04:17:58;11.68;;;8.50;;
73954;SDS011;62306;52.516;13.290;2023-07-29T04:20:24;8.55;;;7.68;;
73954;SDS011;62306;52.516;13.290;2023-07-29T04:22:51;12.18;;;8.73;;
73954;SDS011;62306;52.516;13.290;2023-07-29T04:25:18;12.20;;;8.18;;
73954;SDS011;62306;52.516;13.290;2023-07-29T04:27:45;12.15;;;8.15;;
73954;SDS011;62306;52.516;13.290;2023-07-29T04:30:13;9.68;;;8.07;;
73954;SDS011;62306;52.516;13.290;2023-07-29T04:32:40;11.40;;;9.13;;
73954;SDS011;62306;52.516;13.290;2023-07-29T04:35:09;10.95;;;8.57;;
73954;SDS011;62306;52.516;13.290;2023-07-29T04:37:36;9.93;;;8.43;;
73954;SDS011;62306;52.516;13.290;2023-07-29T04:40:03;10.18;;;8.00;;
73954;SDS011;62306;52.516;13.290;2023-07-29T04:42:31;13.13;;;8.55;;
73954;SDS011;62306;52.516;13.290;2023-07-29T04:44:58;9.32;;;7.90;;
73954;SDS011;62306;52.516;13.290;2023-07-29T04:47:26;16.83;;;12.15;;
73954;SDS011;62306;52.516;13.290;2023-07-29T04:49:53;9.38;;;8.38;;
73954;SDS011;62306;52.516;13.290;2023-07-29T04:52:20;10.38;;;8.65;;
73954;SDS011;62306;52.516;13.290;2023-07-29T04:54:46;10.48;;;7.82;;
73954;SDS011;62306;52.516;13.290;2023-07-29T04:57:13;9.77;;;7.45;;
73954;SDS011;62306;52.516;13.290;2023-07-29T04:59:40;10.32;;;8.02;;
73954;SDS011;62306;52.516;13.290;2023-07-29T05:02:07;9.77;;;7.47;;
73954;SDS011;62306;52.516;13.290;2023-07-29T05:04:35;12.48;;;7.25;;
73954;SDS011;62306;52.516;13.290;2023-07-29T05:07:02;8.70;;;7.80;;
73954;SDS011;62306;52.516;13.290;2023-07-29T05:09:29;9.88;;;7.65;;
73954;SDS011;62306;52.516;13.290;2023-07-29T05:11:56;8.65;;;7.82;;
73954;SDS011;62306;52.516;13.290;2023-07-29T05:14:22;9.85;;;7.70;;
73954;SDS011;62306;52.516;13.290;2023-07-29T05:16:49;12.48;;;8.35;;
73954;SDS011;62306;52.516;13.290;2023-07-29T05:19:16;9.63;;;7.60;;
73954;SDS011;62306;52.516;13.290;2023-07-29T05:21:44;10.48;;;7.50;;
73954;SDS011;62306;52.516;13.290;2023-07-29T05:24:11;10.60;;;7.15;;
73954;SDS011;62306;52.516;13.290;2023-07-29T05:26:38;8.38;;;5.95;;
73954;SDS011;62306;52.516;13.290;2023-07-29T05:29:05;9.50;;;5.47;;
73954;SDS011;62306;52.516;13.290;2023-07-29T05:31:31;5.97;;;5.35;;
73954;SDS011;62306;52.516;13.290;2023-07-29T05:33:58;7.35;;;6.28;;
73954;SDS011;62306;52.516;13.290;2023-07-29T05:36:25;7.22;;;6.55;;
73954;SDS011;62306;52.516;13.290;2023-07-29T05:38:53;6.57;;;5.60;;
73954;SDS011;62306;52.516;13.290;2023-07-29T05:41:20;7.35;;;6.38;;
73954;SDS011;62306;52.516;13.290;2023-07-29T05:43:47;6.57;;;5.95;;
73954;SDS011;62306;52.516;13.290;2023-07-29T05:46:14;7.15;;;6.30;;
73954;SDS011;62306;52.516;13.290;2023-07-29T05:48:41;6.35;;;5.70;;
73954;SDS011;62306;52.516;13.290;2023-07-29T05:51:07;6.03;;;5.53;;
73954;SDS011;62306;52.516;13.290;2023-07-29T05:53:34;5.72;;;5.18;;
73954;SDS011;62306;52.516;13.290;2023-07-29T05:56:03;6.95;;;5.18;;
73954;SDS011;62306;52.516;13.290;2023-07-29T05:58:30;12.38;;;5.20;;
73954;SDS011;62306;52.516;13.290;2023-07-29T06:00:57;7.63;;;5.00;;
73954;SDS011;62306;52.516;13.290;2023-07-29T06:03:24;6.07;;;4.80;;
73954;SDS011;62306;52.516;13.290;2023-07-29T06:05:51;6.95;;;5.00;;
73954;SDS011;62306;52.516;13.290;2023-07-29T06:08:18;5.43;;;4.93;;
73954;SDS011;62306;52.516;13.290;2023-07-29T06:10:44;4.88;;;4.38;;
73954;SDS011;62306;52.516;13.290;2023-07-29T06:13:13;4.75;;;4.30;;
73954;SDS011;62306;52.516;13.290;2023-07-29T06:15:40;7.25;;;4.60;;
73954;SDS011;62306;52.516;13.290;2023-07-29T06:18:06;5.63;;;4.60;;
73954;SDS011;62306;52.516;13.290;2023-07-29T06:20:33;4.35;;;3.78;;
73954;SDS011;62306;52.516;13.290;2023-07-29T06:23:00;6.07;;;5.03;;
73954;SDS011;62306;52.516;13.290;2023-07-29T06:25:27;6.68;;;4.82;;
73954;SDS011;62306;52.516;13.290;2023-07-29T06:27:54;5.82;;;3.95;;
73954;SDS011;62306;52.516;13.290;2023-07-29T06:30:22;5.03;;;4.45;;
73954;SDS011;62306;52.516;13.290;2023-07-29T06:32:49;6.95;;;4.13;;
73954;SDS011;62306;52.516;13.290;2023-07-29T06:35:16;9.82;;;8.27;;
73954;SDS011;62306;52.516;13.290;2023-07-29T06:37:43;5.18;;;4.50;;
73954;SDS011;62306;52.516;13.290;2023-07-29T06:40:10;4.38;;;3.45;;
73954;SDS011;62306;52.516;13.290;2023-07-29T06:42:37;5.07;;;4.38;;
73954;SDS011;62306;52.516;13.290;2023-07-29T06:45:04;5.70;;;5.00;;
73954;SDS011;62306;52.516;13.290;2023-07-29T06:47:33;10.15;;;7.53;;
73954;SDS011;62306;52.516;13.290;2023-07-29T06:50:00;5.25;;;4.65;;
73954;SDS011;62306;52.516;13.290;2023-07-29T06:52:27;4.55;;;4.15;;
73954;SDS011;62306;52.516;13.290;2023-07-29T06:54:54;4.95;;;4.45;;
73954;SDS011;62306;52.516;13.290;2023-07-29T06:57:21;4.82;;;4.35;;
73954;SDS011;62306;52.516;13.290;2023-07-29T06:59:48;5.43;;;4.93;;
73954;SDS011;62306;52.516;13.290;2023-07-29T07:02:15;7.55;;;4.65;;
73954;SDS011;62306;52.516;13.290;2023-07-29T07:04:43;7.28;;;5.13;;
73954;SDS011;62306;52.516;13.290;2023-07-29T07:07:10;6.53;;;5.30;;
73954;SDS011;62306;52.516;13.290;2023-07-29T07:09:37;5.55;;;4.40;;
73954;SDS011;62306;52.516;13.290;2023-07-29T07:12:04;9.60;;;6.88;;
73954;SDS011;62306;52.516;13.290;2023-07-29T07:14:31;5.95;;;4.70;;
73954;SDS011;62306;52.516;13.290;2023-07-29T07:16:58;10.18;;;5.13;;
73954;SDS011;62306;52.516;13.290;2023-07-29T07:19:25;7.55;;;5.35;;
73954;SDS011;62306;52.516;13.290;2023-07-29T07:21:53;9.85;;;6.10;;
73954;SDS011;62306;52.516;13.290;2023-07-29T07:24:20;6.70;;;5.43;;
73954;SDS011;62306;52.516;13.290;2023-07-29T07:26:47;5.75;;;4.82;;
73954;SDS011;62306;52.516;13.290;2023-07-29T07:29:14;5.97;;;4.65;;
73954;SDS011;62306;52.516;13.290;2023-07-29T07:31:41;5.47;;;4.97;;
73954;SDS011;62306;52.516;13.290;2023-07-29T07:34:17;5.75;;;5.15;;
73954;SDS011;62306;52.516;13.290;2023-07-29T07:36:44;4.95;;;4.43;;
73954;SDS011;62306;52.516;13.290;2023-07-29T07:39:13;5.40;;;4.65;;
73954;SDS011;62306;52.516;13.290;2023-07-29T07:41:41;6.00;;;4.80;;
73954;SDS011;62306;52.516;13.290;2023-07-29T07:44:08;5.70;;;5.10;;
73954;SDS011;62306;52.516;13.290;2023-07-29T07:46:36;8.23;;;5.07;;
73954;SDS011;62306;52.516;13.290;2023-07-29T07:49:03;5.63;;;4.22;;
73954;SDS011;62306;52.516;13.290;2023-07-29T07:51:30;5.75;;;5.15;;
73954;SDS011;62306;52.516;13.290;2023-07-29T07:53:57;4.63;;;4.13;;
73954;SDS011;62306;52.516;13.290;2023-07-29T07:56:25;4.65;;;4.22;;
73954;SDS011;62306;52.516;13.290;2023-07-29T07:58:52;4.30;;;3.90;;
73954;SDS011;62306;52.516;13.290;2023-07-29T08:01:19;7.90;;;4.32;;
73954;SDS011;62306;52.516;13.290;2023-07-29T08:03:46;8.20;;;4.20;;
73954;SDS011;62306;52.516;13.290;2023-07-29T08:06:13;4.20;;;3.80;;
73954;SDS011;62306;52.516;13.290;2023-07-29T08:08:40;5.47;;;4.43;;
73954;SDS011;62306;52.516;13.290;2023-07-29T08:11:07;5.78;;;5.15;;
73954;SDS011;62306;52.516;13.290;2023-07-29T08:13:36;5.82;;;3.90;;
73954;SDS011;62306;52.516;13.290;2023-07-29T08:16:03;5.28;;;4.78;;
73954;SDS011;62306;52.516;13.290;2023-07-29T08:18:30;4.10;;;3.75;;
73954;SDS011;62306;52.516;13.290;2023-07-29T08:20:57;4.82;;;4.00;;
73954;SDS011;62306;52.516;13.290;2023-07-29T08:23:28;4.57;;;4.18;;
73954;SDS011;62306;52.516;13.290;2023-07-29T08:25:56;3.92;;;3.47;;
73954;SDS011;62306;52.516;13.290;2023-07-29T08:28:26;3.88;;;3.40;;
73954;SDS011;62306;52.516;13.290;2023-07-29T08:30:55;5.28;;;3.53;;
73954;SDS011;62306;52.516;13.290;2023-07-29T08:33:22;6.22;;;5.18;;
73954;SDS011;62306;52.516;13.290;2023-07-29T08:35:49;6.80;;;3.55;;
73954;SDS011;62306;52.516;13.290;2023-07-29T08:38:16;4.07;;;3.78;;
73954;SDS011;62306;52.516;13.290;2023-07-29T08:40:45;5.20;;;3.60;;
73954;SDS011;62306;52.516;13.290;2023-07-29T08:43:15;3.30;;;3.00;;
73954;SDS011;62306;52.516;13.290;2023-07-29T08:45:45;4.47;;;4.07;;
73954;SDS011;62306;52.516;13.290;2023-07-29T08:48:15;4.30;;;3.90;;
73954;SDS011;62306;52.516;13.290;2023-07-29T08:50:47;6.13;;;4.05;;
73954;SDS011;62306;52.516;13.290;2023-07-29T08:53:17;6.65;;;3.38;;
73954;SDS011;62306;52.516;13.290;2023-07-29T08:55:44;3.65;;;3.35;;
73954;SDS011;62306;52.516;13.290;2023-07-29T08:58:11;3.70;;;3.40;;
73954;SDS011;62306;52.516;13.290;2023-07-29T09:00:38;4.88;;;3.22;;
73954;SDS011;62306;52.516;13.290;2023-07-29T09:03:06;5.05;;;3.70;;
73954;SDS011;62306;52.516;13.290;2023-07-29T09:05:34;5.32;;;4.03;;
73954;SDS011;62306;52.516;13.290;2023-07-29T09:08:02;5.13;;;3.85;;
73954;SDS011;62306;52.516;13.290;2023-07-29T09:10:30;4.10;;;3.58;;
73954;SDS011;62306;52.516;13.290;2023-07-29T09:13:01;5.28;;;4.30;;
73954;SDS011;62306;52.516;13.290;2023-07-29T09:15:29;4.80;;;4.30;;
73954;SDS011;62306;52.516;13.290;2023-07-29T09:17:57;6.53;;;4.15;;
73954;SDS011;62306;52.516;13.290;2023-07-29T09:20:25;4.50;;;4.05;;
73954;SDS011;62306;52.516;13.290;2023-07-29T09:22:54;4.18;;;2.90;;
73954;SDS011;62306;52.516;13.290;2023-07-29T09:25:24;3.93;;;3.50;;
73954;SDS011;62306;52.516;13.290;2023-07-29T09:27:52;4.35;;;3.88;;
73954;SDS011;62306;52.516;13.290;2023-07-29T09:30:24;7.25;;;5.10;;
73954;SDS011;62306;52.516;13.290;2023-07-29T09:32:53;5.45;;;3.50;;
73954;SDS011;62306;52.516;13.290;2023-07-29T09:35:21;9.38;;;4.20;;
73954;SDS011;62306;52.516;13.290;2023-07-29T09:37:49;14.48;;;7.00;;
73954;SDS011;62306;52.516;13.290;2023-07-29T09:40:18;6.53;;;5.68;;
73954;SDS011;62306;52.516;13.290;2023-07-29T09:42:48;4.47;;;4.03;;
73954;SDS011;62306;52.516;13.290;2023-07-29T09:45:19;8.18;;;3.80;;
73954;SDS011;62306;52.516;13.290;2023-07-29T09:47:47;6.25;;;3.40;;
73954;SDS011;62306;52.516;13.290;2023-07-29T09:50:14;6.38;;;5.13;;
73954;SDS011;62306;52.516;13.290;2023-07-29T09:52:42;6.07;;;3.83;;
73954;SDS011;62306;52.516;13.290;2023-07-29T09:55:10;4.63;;;3.15;;
73954;SDS011;62306;52.516;13.290;2023-07-29T09:57:39;3.35;;;3.05;;
73954;SDS011;62306;52.516;13.290;2023-07-29T10:00:07;5.43;;;3.55;;
73954;SDS011;62306;52.516;13.290;2023-07-29T10:02:37;5.13;;;3.28;;
73954;SDS011;62306;52.516;13.290;2023-07-29T10:05:05;7.60;;;3.03;;
73954;SDS011;62306;52.516;13.290;2023-07-29T10:07:34;3.63;;;3.33;;
73954;SDS011;62306;52.516;13.290;2023-07-29T10:10:02;2.50;;;2.30;;
73954;SDS011;62306;52.516;13.290;2023-07-29T10:12:31;4.47;;;2.78;;
73954;SDS011;62306;52.516;13.290;2023-07-29T10:15:00;6.82;;;3.28;;
73954;SDS011;62306;52.516;13.290;2023-07-29T10:17:29;5.22;;;3.95;;
73954;SDS011;62306;52.516;13.290;2023-07-29T10:19:56;4.60;;;2.75;;
73954;SDS011;62306;52.516;13.290;2023-07-29T10:22:24;4.38;;;2.80;;
73954;SDS011;62306;52.516;13.290;2023-07-29T10:24:53;3.95;;;2.78;;
73954;SDS011;62306;52.516;13.290;2023-07-29T10:27:22;3.15;;;2.78;;
73954;SDS011;62306;52.516;13.290;2023-07-29T10:29:52;3.13;;;2.83;;
73954;SDS011;62306;52.516;13.290;2023-07-29T10:32:25;2.90;;;2.38;;
73954;SDS011;62306;52.516;13.290;2023-07-29T10:34:52;5.53;;;2.45;;
73954;SDS011;62306;52.516;13.290;2023-07-29T10:37:19;4.95;;;2.58;;
73954;SDS011;62306;52.516;13.290;2023-07-29T10:39:51;2.85;;;2.28;;
73954;SDS011;62306;52.516;13.290;2023-07-29T10:42:20;2.65;;;2.42;;
73954;SDS011;62306;52.516;13.290;2023-07-29T10:44:50;2.38;;;2.17;;
73954;SDS011;62306;52.516;13.290;2023-07-29T10:47:19;6.88;;;3.10;;
73954;SDS011;62306;52.516;13.290;2023-07-29T10:49:49;3.72;;;3.00;;
73954;SDS011;62306;52.516;13.290;2023-07-29T10:52:27;4.07;;;3.67;;
73954;SDS011;62306;52.516;13.290;2023-07-29T10:54:56;2.95;;;2.70;;
73954;SDS011;62306;52.516;13.290;2023-07-29T10:57:30;4.82;;;3.00;;
73954;SDS011;62306;52.516;13.290;2023-07-29T10:59:58;4.75;;;3.50;;
73954;SDS011;62306;52.516;13.290;2023-07-29T11:02:29;2.63;;;2.42;;
73954;SDS011;62306;52.516;13.290;2023-07-29T11:05:04;11.75;;;3.40;;
73954;SDS011;62306;52.516;13.290;2023-07-29T11:10:09;8.48;;;3.55;;
73954;SDS011;62306;52.516;13.290;2023-07-29T11:12:40;2.85;;;1.70;;
73954;SDS011;62306;52.516;13.290;2023-07-29T11:15:12;2.53;;;1.10;;
73954;SDS011;62306;52.516;13.290;2023-07-29T11:17:42;3.15;;;1.08;;
73954;SDS011;62306;52.516;13.290;2023-07-29T11:20:11;3.47;;;1.63;;
73954;SDS011;62306;52.516;13.290;2023-07-29T11:22:39;3.67;;;2.50;;
73954;SDS011;62306;52.516;13.290;2023-07-29T11:25:07;3.22;;;1.98;;
73954;SDS011;62306;52.516;13.290;2023-07-29T11:27:47;3.75;;;1.80;;
73954;SDS011;62306;52.516;13.290;2023-07-29T11:30:14;5.03;;;2.35;;
73954;SDS011;62306;52.516;13.290;2023-07-29T11:32:42;3.85;;;1.80;;
73954;SDS011;62306;52.516;13.290;2023-07-29T11:35:12;4.50;;;2.75;;
73954;SDS011;62306;52.516;13.290;2023-07-29T11:37:40;5.40;;;2.42;;
73954;SDS011;62306;52.516;13.290;2023-07-29T11:40:13;6.72;;;1.90;;
73954;SDS011;62306;52.516;13.290;2023-07-29T11:42:41;4.82;;;2.00;;
73954;SDS011;62306;52.516;13.290;2023-07-29T11:45:08;3.10;;;1.85;;
73954;SDS011;62306;52.516;13.290;2023-07-29T11:47:35;5.57;;;2.00;;
73954;SDS011;62306;52.516;13.290;2023-07-29T11:50:03;5.65;;;1.80;;
73954;SDS011;62306;52.516;13.290;2023-07-29T11:52:32;6.60;;;2.63;;
73954;SDS011;62306;52.516;13.290;2023-07-29T11:54:59;37.72;;;31.10;;
73954;SDS011;62306;52.516;13.290;2023-07-29T11:57:28;33.60;;;24.15;;
73954;SDS011;62306;52.516;13.290;2023-07-29T11:59:55;27.13;;;23.58;;
73954;SDS011;62306;52.516;13.290;2023-07-29T12:02:22;16.85;;;12.50;;
73954;SDS011;62306;52.516;13.290;2023-07-29T12:04:50;16.20;;;12.90;;
73954;SDS011;62306;52.516;13.290;2023-07-29T12:07:18;14.07;;;11.95;;
73954;SDS011;62306;52.516;13.290;2023-07-29T12:09:47;20.77;;;16.92;;
73954;SDS011;62306;52.516;13.290;2023-07-29T12:12:15;29.27;;;20.63;;
73954;SDS011;62306;52.516;13.290;2023-07-29T12:14:43;16.52;;;12.90;;
73954;SDS011;62306;52.516;13.290;2023-07-29T12:17:11;13.77;;;7.05;;
73954;SDS011;62306;52.516;13.290;2023-07-29T12:19:38;11.45;;;6.85;;
73954;SDS011;62306;52.516;13.290;2023-07-29T12:22:06;8.77;;;5.35;;
73954;SDS011;62306;52.516;13.290;2023-07-29T12:24:35;7.15;;;4.10;;
73954;SDS011;62306;52.516;13.290;2023-07-29T12:27:05;5.07;;;3.53;;
73954;SDS011;62306;52.516;13.290;2023-07-29T12:29:39;5.65;;;3.22;;
73954;SDS011;62306;52.516;13.290;2023-07-29T12:32:07;4.78;;;3.00;;
73954;SDS011;62306;52.516;13.290;2023-07-29T12:34:34;11.38;;;5.75;;
73954;SDS011;62306;52.516;13.290;2023-07-29T12:37:03;6.50;;;3.58;;
73954;SDS011;62306;52.516;13.290;2023-07-29T12:39:31;4.40;;;3.22;;
73954;SDS011;62306;52.516;13.290;2023-07-29T12:41:59;5.82;;;3.08;;
73954;SDS011;62306;52.516;13.290;2023-07-29T12:44:29;6.38;;;2.90;;
73954;SDS011;62306;52.516;13.290;2023-07-29T12:46:57;3.65;;;3.15;;
73954;SDS011;62306;52.516;13.290;2023-07-29T12:49:23;7.53;;;3.78;;
73954;SDS011;62306;52.516;13.290;2023-07-29T12:51:51;5.38;;;3.38;;
73954;SDS011;62306;52.516;13.290;2023-07-29T12:54:18;4.50;;;3.35;;
73954;SDS011;62306;52.516;13.290;2023-07-29T12:56:44;5.18;;;3.10;;
73954;SDS011;62306;52.516;13.290;2023-07-29T12:59:11;5.35;;;3.20;;
73954;SDS011;62306;52.516;13.290;2023-07-29T13:01:40;4.50;;;3.40;;
73954;SDS011;62306;52.516;13.290;2023-07-29T13:04:06;7.13;;;3.88;;
73954;SDS011;62306;52.516;13.290;2023-07-29T13:06:33;3.65;;;3.35;;
73954;SDS011;62306;52.516;13.290;2023-07-29T13:09:00;8.88;;;6.18;;
73954;SDS011;62306;52.516;13.290;2023-07-29T13:11:28;5.13;;;4.60;;
73954;SDS011;62306;52.516;13.290;2023-07-29T13:13:57;5.88;;;3.63;;
73954;SDS011;62306;52.516;13.290;2023-07-29T13:16:25;3.80;;;3.50;;
73954;SDS011;62306;52.516;13.290;2023-07-29T13:18:54;4.93;;;3.88;;
73954;SDS011;62306;52.516;13.290;2023-07-29T13:21:20;7.45;;;3.53;;
73954;SDS011;62306;52.516;13.290;2023-07-29T13:23:47;4.53;;;3.10;;
73954;SDS011;62306;52.516;13.290;2023-07-29T13:26:14;4.05;;;2.58;;
73954;SDS011;62306;52.516;13.290;2023-07-29T13:28:41;3.47;;;3.00;;
73954;SDS011;62306;52.516;13.290;2023-07-29T13:31:08;3.20;;;2.90;;
73954;SDS011;62306;52.516;13.290;2023-07-29T13:33:34;3.80;;;2.22;;
73954;SDS011;62306;52.516;13.290;2023-07-29T13:36:03;2.50;;;2.30;;
73954;SDS011;62306;52.516;13.290;2023-07-29T13:38:30;2.53;;;2.33;;
73954;SDS011;62306;52.516;13.290;2023-07-29T13:40:56;3.20;;;2.90;;
73954;SDS011;62306;52.516;13.290;2023-07-29T13:43:24;5.30;;;2.28;;
73954;SDS011;62306;52.516;13.290;2023-07-29T13:45:50;5.15;;;2.60;;
73954;SDS011;62306;52.516;13.290;2023-07-29T13:48:17;3.60;;;2.40;;
73954;SDS011;62306;52.516;13.290;2023-07-29T13:50:44;2.13;;;1.92;;
73954;SDS011;62306;52.516;13.290;2023-07-29T13:53:13;5.97;;;1.85;;
73954;SDS011;62306;52.516;13.290;2023-07-29T13:55:39;2.63;;;1.85;;
73954;SDS011;62306;52.516;13.290;2023-07-29T13:58:06;2.08;;;1.80;;
73954;SDS011;62306;52.516;13.290;2023-07-29T14:00:33;1.77;;;1.63;;
73954;SDS011;62306;52.516;13.290;2023-07-29T14:03:00;5.10;;;2.10;;
73954;SDS011;62306;52.516;13.290;2023-07-29T14:05:27;3.47;;;2.03;;
73954;SDS011;62306;52.516;13.290;2023-07-29T14:07:54;2.70;;;2.30;;
73954;SDS011;62306;52.516;13.290;2023-07-29T14:10:22;2.92;;;1.80;;
73954;SDS011;62306;52.516;13.290;2023-07-29T14:12:50;2.67;;;1.88;;
73954;SDS011;62306;52.516;13.290;2023-07-29T14:15:16;1.83;;;1.65;;
73954;SDS011;62306;52.516;13.290;2023-07-29T14:17:43;1.92;;;1.77;;
73954;SDS011;62306;52.516;13.290;2023-07-29T14:20:10;2.20;;;1.80;;
73954;SDS011;62306;52.516;13.290;2023-07-29T14:22:38;2.45;;;1.67;;
73954;SDS011;62306;52.516;13.290;2023-07-29T14:25:05;4.63;;;2.20;;
73954;SDS011;62306;52.516;13.290;2023-07-29T14:27:35;2.40;;;1.65;;
73954;SDS011;62306;52.516;13.290;2023-07-29T14:30:01;1.85;;;1.73;;
73954;SDS011;62306;52.516;13.290;2023-07-29T14:32:29;2.97;;;1.27;;
73954;SDS011;62306;52.516;13.290;2023-07-29T14:34:55;2.33;;;1.58;;
73954;SDS011;62306;52.516;13.290;2023-07-29T14:37:22;8.90;;;4.85;;